This is the latest recevied weather packets stored in our database for station/object AJ1L. If no packets are shown the sender has not sent any weather packets the latest 10 day(s).
| Time | Temp. | Humidity | Pressure | Rain* | Wind** | Luminosity | Snow |
|---|---|---|---|---|---|---|---|
| 1777434638 | 6.67° C | 83% | 1018 hPa | 0 mm | - | - | - |
| 1777433637 | 6.67° C | 82% | 1018.4 hPa | 0 mm | - | - | - |
| 1777432637 | 6.67° C | 82% | 1018.3 hPa | 0 mm | - | - | - |
| 1777431638 | 6.67° C | 82% | 1018.5 hPa | 0 mm | - | - | - |
| 1777430637 | 6.67° C | 82% | 1019 hPa | 0 mm | - | - | - |
| 1777429637 | 6.67° C | 81% | 1019.3 hPa | 0 mm | - | - | - |
| 1777428637 | 6.67° C | 81% | 1019.6 hPa | 0 mm | - | - | - |
| 1777427637 | 6.67° C | 81% | 1019.8 hPa | 0 mm | - | - | - |
| 1777426637 | 6.67° C | 81% | 1019.9 hPa | 0 mm | - | - | - |
| 1777425637 | 6.11° C | 81% | 1020 hPa | 0 mm | - | - | - |
| 1777424637 | 6.67° C | 81% | 1019.9 hPa | 0 mm | - | - | - |
| 1777423637 | 6.67° C | 81% | 1019.8 hPa | 0 mm | - | - | - |
| 1777422637 | 6.67° C | 81% | 1019.8 hPa | 0 mm | - | - | - |
| 1777421637 | 6.67° C | 81% | 1019.6 hPa | 0 mm | - | - | - |
| 1777420637 | 6.67° C | 79% | 1019.6 hPa | 0 mm | - | - | - |
| 1777419637 | 6.67° C | 78% | 1019.6 hPa | 0 mm | - | - | - |
| 1777418637 | 7.22° C | 76% | 1019.8 hPa | 0 mm | - | - | - |
| 1777417637 | 7.78° C | 74% | 1019.7 hPa | 0 mm | - | - | - |
| 1777416637 | 8.33° C | 72% | 1019.8 hPa | 0 mm | - | - | - |
| 1777415637 | 8.89° C | 66% | 1020.2 hPa | 0 mm | - | - | - |
| 1777414637 | 9.44° C | 58% | 1020.5 hPa | 0 mm | - | - | - |
| 1777413637 | 10° C | 54% | 1020.6 hPa | 0 mm | - | - | - |
| 1777412637 | 10.56° C | 51% | 1020.6 hPa | 0 mm | - | - | - |
| 1777411637 | 11.11° C | 50% | 1020.5 hPa | 0 mm | - | - | - |
| 1777410637 | 11.11° C | 50% | 1020.3 hPa | 0 mm | - | - | - |
* Rain latest hour (hover to see other rain measurements)
** Current wind speed in m/s (hover to see current wind gust speed)